Accueil
METAR-TAF:

METAR-TAF

Aéroports :

Sarrebruck, Allemagne

Aéroport de Sarrebruck

latitude: 49-13N, longitude: 007-07E, altitude: 322 m

Observation

Le bulletin a été fait il y a 16 minutes, à 18:20 UTC
Vent 2 kt de est
Température 14°C
Humidité 88%
Pression 1019 hPa
Visibilité 10 km ou plus
pas de nuages en-dessous de 1500 mètres et pas de cumulonimbus.

METAR: EDDR 171820Z 10002KT CAVOK 14/12 Q1019 NOSIG

Heure: 20:36 (18:36 UTC)

Prévision

Le bulletin a été fait il y a 1 heure et 36 minutes, à 17:00 UTC
Prévision valable du 17 à 18 UTC au 18 à 18 UTC
Vent 2 kt de direction variable
Visibilité 10 km ou plus
pas de nuages en-dessous de 1500 mètres et pas de cumulonimbus.
Evoluant progressivement
du 18 à 08 UTC au 18 à 10 UTC
Vent 6 kt de sud
Evoluant progressivement
du 18 à 17 UTC au 18 à 18 UTC
Vent 3 kt de direction variable

TAF: EDDR 171700Z 1718/1818 VRB02KT CAVOK BECMG 1808/1810 18006KT BECMG 1817/1818 VRB03KT

Observations et prévisions météorologiques de plus de 4000 aéroports (messages METAR et TAF).

Les stations disponibles sont représentées par des disques jaunes et rouges sur la carte.

Passer la souris dessus pour voir le nom de la station.

Cliquer dessus pour voir les observations et prévisions météorologiques.

Pour changer de carte: cliquez sur les boutons verts avec une croix noire pour zoomer, sur le bouton vert avec un tiret pour effectuer un zoom arrière, ou sur les flèches vertes pour les cartes adjacentes.


METAR-TAF: